KGHW

Glenwood Municipal Airport

Glenwood, Minnesota, USA
METAR KGHW 231055Z AUTO 34009KT 10SM CLR M07/M08 A3000 RMK AO2
Observed Flight Rules
Jan-23 @ 10:55 UTC (54 minutes ago) Visual Flight Rules
Wind Visibility Clouds
340° at 9 knots 10 miles
  • Clear skies
Temperatures Readings
Current -7°C / 19°F
Dewpoint -8°C / 18°F
Humidity 93%
Altimeter 30" Hg
Pressure 1016 hPa
Elevation 425
METAR KGHW 231055Z AUTO 34009KT 10SM CLR M07/M08 A3000 RMK AO2
Observed Flight Rules
Jan-23 @ 10:55 UTC
(54 minutes ago)
VFR
Wind Visibility
340° at 9 knots 10 miles
Clouds
  • Clear skies
Temperature Dewpoint
-7°C / 19°F -8°C / 18°F
Humidity Altimeter Pressure
93% 30" Hg 1016 hPa